Time;durP1;ratioP1;P1;durP2;ratioP2;P2;SDS_P1;SDS_P2;PMS_P1;PMS_P2;Temp;Humidity;BMP_temperature;BMP_pressure;BME280_temperature;BME280_humidity;BME280_pressure;Samples;Min_cycle;Max_cycle;Signal;HPM_P1;HPM_P2
2023/03/09 00:00:15;;;;;;;13.90;10.05;;;4.40;99.90;;;;;;5032836;28;20282;-76
2023/03/09 00:02:43;;;;;;;16.63;11.85;;;4.40;99.90;;;;;;5031458;28;20249;-74
2023/03/09 00:05:15;;;;;;;15.50;11.40;;;4.40;99.90;;;;;;5032498;28;20245;-74
2023/03/09 00:07:43;;;;;;;16.63;12.35;;;4.40;99.90;;;;;;5031793;28;20225;-76
2023/03/09 00:10:13;;;;;;;17.25;13.13;;;4.40;99.90;;;;;;5034223;28;20243;-75
2023/03/09 00:12:51;;;;;;;14.43;11.20;;;4.40;99.90;;;;;;5031567;28;20236;-75
2023/03/09 00:15:18;;;;;;;17.40;12.90;;;4.40;99.90;;;;;;5032427;28;20256;-74
2023/03/09 00:17:45;;;;;;;20.95;12.52;;;4.40;99.90;;;;;;5031733;28;20327;-76
2023/03/09 00:20:16;;;;;;;19.73;13.70;;;4.40;99.90;;;;;;5032077;28;20217;-74
2023/03/09 00:22:44;;;;;;;17.00;13.70;;;4.40;99.90;;;;;;5032332;28;20308;-75
2023/03/09 00:25:13;;;;;;;16.85;12.32;;;4.40;99.90;;;;;;5031349;28;20237;-74
2023/03/09 00:27:41;;;;;;;18.50;13.43;;;4.40;99.90;;;;;;5032805;28;20232;-74
2023/03/09 00:30:10;;;;;;;15.20;12.02;;;4.50;99.90;;;;;;5032065;28;20316;-74
2023/03/09 00:32:40;;;;;;;19.25;14.07;;;4.50;99.90;;;;;;5031977;28;20236;-74
2023/03/09 00:35:09;;;;;;;18.00;12.52;;;4.40;99.90;;;;;;5032085;28;20566;-75
2023/03/09 00:37:37;;;;;;;16.50;14.07;;;4.40;99.90;;;;;;5032284;28;20363;-76
2023/03/09 00:40:09;;;;;;;17.25;12.02;;;4.50;99.90;;;;;;5030950;28;20221;-76
2023/03/09 00:42:38;;;;;;;18.30;13.70;;;4.50;99.90;;;;;;5032746;28;20281;-74
2023/03/09 00:45:06;;;;;;;17.20;13.85;;;4.50;99.90;;;;;;5025836;28;20246;-75
2023/03/09 00:47:33;;;;;;;19.95;13.45;;;4.50;99.90;;;;;;5015840;28;20279;-74
2023/03/09 00:50:01;;;;;;;18.73;13.75;;;4.40;99.90;;;;;;5016194;28;20229;-74
2023/03/09 00:52:28;;;;;;;18.50;13.52;;;4.40;99.90;;;;;;5016307;28;20222;-74
2023/03/09 00:54:57;;;;;;;20.13;14.20;;;4.40;99.90;;;;;;5015013;28;20274;-74
2023/03/09 00:57:25;;;;;;;19.15;13.23;;;4.30;99.90;;;;;;5016633;28;20214;-75
2023/03/09 00:59:54;;;;;;;17.83;14.23;;;4.30;99.90;;;;;;5016355;28;20226;-74
2023/03/09 01:02:23;;;;;;;17.42;13.82;;;4.30;99.90;;;;;;5023528;28;20634;-76
2023/03/09 01:04:51;;;;;;;18.90;14.10;;;4.20;99.90;;;;;;5032151;28;20256;-74
2023/03/09 01:07:18;;;;;;;19.08;15.25;;;4.30;99.90;;;;;;5036903;28;20639;-75
2023/03/09 01:09:45;;;;;;;18.67;13.32;;;4.20;99.90;;;;;;5040945;28;20257;-73
2023/03/09 01:12:13;;;;;;;16.35;13.20;;;4.20;99.90;;;;;;5034516;28;20247;-74
2023/03/09 01:14:40;;;;;;;15.40;11.10;;;4.20;99.90;;;;;;5034001;28;20221;-75
2023/03/09 01:17:09;;;;;;;19.50;13.07;;;4.20;99.90;;;;;;5034446;28;20233;-74
2023/03/09 01:19:36;;;;;;;18.92;13.68;;;4.20;99.90;;;;;;5035381;28;20702;-74
2023/03/09 01:22:03;;;;;;;18.50;13.70;;;4.20;99.90;;;;;;5035095;28;20606;-77
2023/03/09 01:24:31;;;;;;;17.85;13.80;;;4.20;99.90;;;;;;5035429;28;20236;-75
2023/03/09 01:26:58;;;;;;;18.17;13.10;;;4.10;99.90;;;;;;5035512;28;20583;-76
2023/03/09 01:29:25;;;;;;;18.58;13.98;;;4.20;99.90;;;;;;5035013;28;20521;-74
2023/03/09 01:31:52;;;;;;;18.58;13.52;;;4.20;99.90;;;;;;5035287;28;20236;-76
2023/03/09 01:34:21;;;;;;;20.75;16.38;;;4.20;99.90;;;;;;5035298;28;20241;-76
2023/03/09 01:36:48;;;;;;;15.30;12.30;;;4.20;99.90;;;;;;5035404;28;20702;-76
2023/03/09 01:39:15;;;;;;;17.60;14.85;;;4.20;99.90;;;;;;5025866;28;20237;-76
2023/03/09 01:41:42;;;;;;;18.25;13.32;;;4.20;99.90;;;;;;5035645;28;20225;-76
2023/03/09 01:44:12;;;;;;;19.70;13.93;;;4.20;99.90;;;;;;5035101;28;20562;-74
2023/03/09 01:46:50;;;;;;;21.83;13.35;;;4.30;99.90;;;;;;5035405;28;20702;-73
2023/03/09 01:49:31;;;;;;;21.08;15.60;;;4.40;99.90;;;;;;5034283;28;20636;-73
2023/03/09 01:52:02;;;;;;;18.63;14.25;;;4.30;99.90;;;;;;5036058;28;20220;-76
2023/03/09 01:54:35;;;;;;;19.13;13.57;;;4.30;99.90;;;;;;5038689;28;20514;-76
2023/03/09 01:57:08;;;;;;;19.70;13.38;;;4.30;99.90;;;;;;5038121;28;20229;-76
2023/03/09 01:59:36;;;;;;;19.08;14.35;;;4.30;99.90;;;;;;5036020;28;20530;-74
2023/03/09 02:02:04;;;;;;;19.92;12.50;;;4.30;99.90;;;;;;5037121;28;20233;-75
2023/03/09 02:04:38;;;;;;;19.85;14.80;;;4.30;99.90;;;;;;5034030;28;20607;-74
2023/03/09 02:07:05;;;;;;;20.63;15.82;;;4.30;99.90;;;;;;5034300;28;20233;-74
2023/03/09 02:09:39;;;;;;;21.38;15.00;;;4.30;99.90;;;;;;5034160;28;20233;-76
2023/03/09 02:12:09;;;;;;;17.60;13.40;;;4.30;99.90;;;;;;5034160;28;20248;-74
2023/03/09 02:14:36;;;;;;;19.60;15.00;;;4.30;99.90;;;;;;5033772;28;20274;-73
2023/03/09 02:17:03;;;;;;;25.98;14.20;;;4.30;99.90;;;;;;5034442;28;20541;-74
2023/03/09 02:19:41;;;;;;;17.83;14.35;;;4.30;99.90;;;;;;5033941;28;20233;-74
2023/03/09 02:22:09;;;;;;;23.52;15.25;;;4.30;99.90;;;;;;5033926;28;20304;-74
2023/03/09 02:24:44;;;;;;;20.77;14.93;;;4.30;99.90;;;;;;5032510;28;20659;-76
2023/03/09 02:27:16;;;;;;;21.15;15.50;;;4.40;99.90;;;;;;5034560;28;20233;-76
2023/03/09 02:29:43;;;;;;;20.35;15.50;;;4.40;99.90;;;;;;5041963;28;20294;-76
2023/03/09 02:32:10;;;;;;;19.65;14.35;;;4.30;99.90;;;;;;5034047;28;20274;-76
2023/03/09 02:34:38;;;;;;;21.00;14.90;;;4.30;99.90;;;;;;5033322;28;20237;-76
2023/03/09 02:37:05;;;;;;;22.77;16.13;;;4.30;99.90;;;;;;5033788;28;20301;-76
2023/03/09 02:39:39;;;;;;;23.48;17.77;;;4.30;99.90;;;;;;5033278;28;20256;-75
2023/03/09 02:42:07;;;;;;;21.30;16.23;;;4.30;99.90;;;;;;5033727;28;20241;-76
2023/03/09 02:44:35;;;;;;;24.33;16.90;;;4.20;99.90;;;;;;5033164;28;20683;-75
2023/03/09 02:47:04;;;;;;;21.98;15.15;;;4.20;99.90;;;;;;5033596;28;20249;-76
2023/03/09 02:49:31;;;;;;;24.90;16.38;;;4.20;99.90;;;;;;5033066;28;20559;-76
2023/03/09 02:52:01;;;;;;;25.63;17.35;;;4.10;99.90;;;;;;5033979;28;20260;-76
2023/03/09 02:54:28;;;;;;;23.05;16.70;;;4.10;99.90;;;;;;5033235;28;20236;-75
2023/03/09 02:56:55;;;;;;;21.75;16.17;;;4.10;99.90;;;;;;5033704;28;20307;-76
2023/03/09 02:59:22;;;;;;;26.15;15.95;;;4.10;99.90;;;;;;5032999;28;20233;-76
2023/03/09 03:01:50;;;;;;;22.33;15.48;;;4.10;99.90;;;;;;5033558;28;20230;-76
2023/03/09 03:04:18;;;;;;;21.63;15.00;;;4.10;99.90;;;;;;5033547;28;20225;-76
2023/03/09 03:06:44;;;;;;;22.88;15.30;;;4.10;99.90;;;;;;5032757;28;20217;-75
2023/03/09 03:09:11;;;;;;;24.80;16.20;;;4.10;99.90;;;;;;5032990;28;20229;-76
2023/03/09 03:11:39;;;;;;;23.45;15.35;;;4.10;99.90;;;;;;5032472;28;20616;-76
2023/03/09 03:14:06;;;;;;;24.13;17.33;;;4.10;99.90;;;;;;5033408;28;20287;-74
2023/03/09 03:16:34;;;;;;;20.13;16.00;;;4.10;99.90;;;;;;5032373;28;20225;-74
2023/03/09 03:19:03;;;;;;;21.15;15.27;;;4.00;99.90;;;;;;5032981;28;20237;-74
2023/03/09 03:21:30;;;;;;;22.85;16.33;;;4.00;99.90;;;;;;5032280;28;20363;-74
2023/03/09 03:23:57;;;;;;;26.50;14.88;;;3.90;99.90;;;;;;5033131;28;20287;-76
2023/03/09 03:26:24;;;;;;;25.42;15.02;;;3.90;99.90;;;;;;5031807;28;20221;-76
2023/03/09 03:28:51;;;;;;;24.15;16.02;;;3.90;99.90;;;;;;5032953;28;20229;-76
2023/03/09 03:31:18;;;;;;;19.33;14.63;;;3.90;99.90;;;;;;5033102;28;20221;-77
2023/03/09 03:33:45;;;;;;;19.52;14.60;;;3.90;99.90;;;;;;5022685;28;20229;-75
2023/03/09 03:36:14;;;;;;;22.30;15.20;;;3.90;99.90;;;;;;5032682;28;20213;-77
2023/03/09 03:38:41;;;;;;;19.35;14.13;;;3.90;99.90;;;;;;5032591;28;20233;-76
2023/03/09 03:41:13;;;;;;;23.00;15.65;;;4.00;99.90;;;;;;5033228;28;20232;-74
2023/03/09 03:43:43;;;;;;;18.90;13.65;;;4.00;99.90;;;;;;5033164;28;20270;-74
2023/03/09 03:46:10;;;;;;;19.02;14.60;;;4.00;99.90;;;;;;5033939;28;20607;-77
2023/03/09 03:48:38;;;;;;;18.75;14.40;;;4.00;99.90;;;;;;5032746;28;20276;-76
2023/03/09 03:51:05;;;;;;;22.13;14.45;;;3.80;99.90;;;;;;5033496;28;20213;-76
2023/03/09 03:53:34;;;;;;;23.05;13.85;;;3.80;99.90;;;;;;5031978;28;20221;-74
2023/03/09 03:56:02;;;;;;;20.95;14.95;;;3.90;99.90;;;;;;5032515;28;20228;-75
2023/03/09 03:58:30;;;;;;;20.45;13.60;;;3.90;99.90;;;;;;5032246;28;20225;-75
2023/03/09 04:00:57;;;;;;;17.98;13.13;;;3.80;99.90;;;;;;5031900;28;20632;-76
2023/03/09 04:03:24;;;;;;;20.60;13.88;;;3.80;99.90;;;;;;5032593;28;20275;-76
2023/03/09 04:05:51;;;;;;;20.08;14.05;;;3.80;99.90;;;;;;5031988;28;20225;-76
2023/03/09 04:08:18;;;;;;;23.52;15.82;;;3.80;99.90;;;;;;5032711;28;20221;-76
2023/03/09 04:10:47;;;;;;;17.58;13.38;;;3.70;99.90;;;;;;5032250;28;20225;-76
2023/03/09 04:13:15;;;;;;;20.50;14.60;;;3.70;99.90;;;;;;5032345;28;20221;-76
2023/03/09 04:15:42;;;;;;;22.92;14.00;;;3.70;99.90;;;;;;5031873;28;20275;-74
2023/03/09 04:18:09;;;;;;;19.38;14.45;;;3.70;99.90;;;;;;5032065;28;20244;-76
2023/03/09 04:20:38;;;;;;;20.52;15.25;;;3.70;99.90;;;;;;5032145;28;20643;-75
2023/03/09 04:23:05;;;;;;;18.75;14.82;;;3.70;99.90;;;;;;5036077;28;20283;-73
2023/03/09 04:25:33;;;;;;;19.73;15.02;;;3.70;99.90;;;;;;5035739;28;20245;-73
2023/03/09 04:28:08;;;;;;;20.15;15.38;;;3.60;99.90;;;;;;5038657;28;20228;-73
2023/03/09 04:30:35;;;;;;;18.63;14.13;;;3.50;99.90;;;;;;5045522;28;20372;-76
2023/03/09 04:33:02;;;;;;;21.83;16.50;;;3.50;99.90;;;;;;5055776;28;20290;-74
2023/03/09 04:35:29;;;;;;;21.73;16.48;;;3.50;99.90;;;;;;5055436;28;20213;-74
2023/03/09 04:37:56;;;;;;;21.25;16.30;;;3.50;99.90;;;;;;5055445;28;20286;-76
2023/03/09 04:40:23;;;;;;;23.17;16.17;;;3.50;99.90;;;;;;5055962;28;20686;-76
2023/03/09 04:42:50;;;;;;;23.85;18.23;;;3.50;99.90;;;;;;5055234;28;20235;-76
2023/03/09 04:45:18;;;;;;;21.17;17.25;;;3.50;99.90;;;;;;5055716;28;20609;-76
2023/03/09 04:47:46;;;;;;;22.83;15.80;;;3.50;99.90;;;;;;5055359;28;20244;-76
2023/03/09 04:50:13;;;;;;;24.20;17.27;;;3.50;99.90;;;;;;5055694;28;20235;-76
2023/03/09 04:52:40;;;;;;;21.30;16.30;;;3.50;99.90;;;;;;5055328;28;20240;-76
2023/03/09 04:55:08;;;;;;;22.90;16.67;;;3.50;99.90;;;;;;5054357;28;20224;-76
2023/03/09 04:57:35;;;;;;;22.85;17.02;;;3.60;99.90;;;;;;5055771;28;20232;-76
2023/03/09 05:00:04;;;;;;;20.80;17.48;;;3.60;99.90;;;;;;5055085;28;20228;-76
2023/03/09 05:02:32;;;;;;;24.33;18.80;;;3.60;99.90;;;;;;5055327;28;20316;-76
2023/03/09 05:04:59;;;;;;;22.70;17.17;;;3.60;99.90;;;;;;5054753;28;20262;-76
2023/03/09 05:07:26;;;;;;;25.05;17.52;;;3.60;99.90;;;;;;5055421;28;20327;-76
2023/03/09 05:09:53;;;;;;;22.45;17.45;;;3.70;99.90;;;;;;5055157;28;20283;-75
2023/03/09 05:12:20;;;;;;;23.67;17.08;;;3.70;99.90;;;;;;5054728;28;20228;-76
2023/03/09 05:14:47;;;;;;;23.30;17.92;;;3.70;99.90;;;;;;5054981;28;20253;-75
2023/03/09 05:17:14;;;;;;;24.75;17.90;;;3.70;99.90;;;;;;5054973;28;20697;-75
2023/03/09 05:19:42;;;;;;;26.23;19.30;;;3.80;99.90;;;;;;5055170;28;20278;-75
2023/03/09 05:22:09;;;;;;;26.35;17.73;;;3.80;99.90;;;;;;5054465;28;20259;-75
2023/03/09 05:24:36;;;;;;;25.42;18.20;;;3.80;99.90;;;;;;5054822;28;20543;-76
2023/03/09 05:27:06;;;;;;;23.77;17.80;;;3.80;99.90;;;;;;5044006;28;20311;-76
2023/03/09 05:29:33;;;;;;;23.25;16.33;;;3.80;99.90;;;;;;5054858;28;20229;-76
2023/03/09 05:32:01;;;;;;;23.55;16.75;;;3.80;99.90;;;;;;5054087;28;20228;-74
2023/03/09 05:34:28;;;;;;;22.58;17.80;;;3.80;99.90;;;;;;5055021;28;20679;-74
2023/03/09 05:36:56;;;;;;;21.42;16.42;;;3.80;99.90;;;;;;5053881;28;20228;-74
2023/03/09 05:39:23;;;;;;;19.63;15.20;;;3.80;99.90;;;;;;5054315;28;20678;-75
2023/03/09 05:41:50;;;;;;;22.83;17.70;;;3.90;99.90;;;;;;5053959;28;20260;-75
2023/03/09 05:44:17;;;;;;;21.98;16.30;;;3.90;99.90;;;;;;5054983;28;20225;-76
2023/03/09 05:46:44;;;;;;;20.23;14.90;;;3.90;99.90;;;;;;5054703;28;20220;-76
2023/03/09 05:49:11;;;;;;;22.20;15.70;;;3.90;99.90;;;;;;5054359;28;20225;-74
2023/03/09 05:51:38;;;;;;;20.80;17.50;;;3.90;99.90;;;;;;5054620;28;20591;-76
2023/03/09 05:54:07;;;;;;;20.45;16.13;;;3.90;99.90;;;;;;5054092;28;20232;-74
2023/03/09 05:56:34;;;;;;;22.77;16.25;;;3.90;99.90;;;;;;5054679;28;20220;-76
2023/03/09 05:59:01;;;;;;;21.40;16.20;;;3.90;99.90;;;;;;5054154;28;20228;-75
2023/03/09 06:01:30;;;;;;;20.83;16.10;;;3.90;99.90;;;;;;5054848;28;20688;-76
2023/03/09 06:03:57;;;;;;;22.45;16.38;;;3.90;99.90;;;;;;5053888;28;20329;-74
2023/03/09 06:06:26;;;;;;;19.77;15.10;;;3.90;99.90;;;;;;5054238;28;20307;-76
2023/03/09 06:08:53;;;;;;;19.90;16.23;;;3.90;99.90;;;;;;5045316;28;20228;-74
2023/03/09 06:11:25;;;;;;;19.60;14.73;;;3.90;99.90;;;;;;5033661;28;20247;-73
2023/03/09 06:13:54;;;;;;;22.10;15.63;;;3.90;99.90;;;;;;5033506;28;20295;-74
2023/03/09 06:16:21;;;;;;;18.08;13.70;;;3.90;99.90;;;;;;5032987;28;20225;-76
2023/03/09 06:18:48;;;;;;;18.38;16.30;;;3.90;99.90;;;;;;5023558;28;20303;-76
2023/03/09 06:21:16;;;;;;;20.80;15.75;;;3.90;99.90;;;;;;5040909;28;20268;-75
2023/03/09 06:23:51;;;;;;;23.10;16.50;;;3.80;99.90;;;;;;5033839;28;20547;-76
2023/03/09 06:26:18;;;;;;;19.98;15.88;;;3.80;99.90;;;;;;5038856;28;20752;-76
2023/03/09 06:28:50;;;;;;;17.63;15.50;;;3.80;99.90;;;;;;5033965;28;20275;-74
2023/03/09 06:31:21;;;;;;;24.25;17.42;;;3.80;99.90;;;;;;5031839;28;20312;-74
2023/03/09 06:33:49;;;;;;;21.02;16.48;;;3.80;99.90;;;;;;5033401;28;20251;-75
2023/03/09 06:36:17;;;;;;;20.80;17.48;;;3.80;99.90;;;;;;5032437;28;20228;-74
2023/03/09 06:38:45;;;;;;;19.38;15.20;;;3.80;99.90;;;;;;5032440;28;20253;-75
2023/03/09 06:41:14;;;;;;;19.92;16.05;;;3.80;99.90;;;;;;5032489;28;20245;-75
2023/03/09 06:43:42;;;;;;;19.15;15.07;;;3.80;99.90;;;;;;5032554;28;20234;-75
2023/03/09 06:46:16;;;;;;;18.55;14.85;;;3.90;99.90;;;;;;5020765;28;20221;-75
2023/03/09 06:48:45;;;;;;;17.55;14.30;;;3.90;99.90;;;;;;5048455;28;20258;-77
2023/03/09 06:51:12;;;;;;;20.15;14.35;;;3.90;99.90;;;;;;5033192;28;20229;-74
2023/03/09 06:53:39;;;;;;;19.75;15.63;;;4.00;99.90;;;;;;5033698;28;20245;-74
2023/03/09 06:56:07;;;;;;;21.65;15.68;;;4.00;99.90;;;;;;5033605;28;20225;-76
2023/03/09 06:58:34;;;;;;;22.20;16.05;;;4.00;99.90;;;;;;5029702;28;20659;-77
2023/03/09 07:01:06;;;;;;;20.60;14.40;;;4.00;99.90;;;;;;5033847;28;20229;-76
2023/03/09 07:03:35;;;;;;;19.33;14.95;;;4.10;99.90;;;;;;5032654;28;20296;-74
2023/03/09 07:06:03;;;;;;;18.17;14.05;;;4.10;99.90;;;;;;5033013;28;20221;-74
2023/03/09 07:08:30;;;;;;;17.77;15.80;;;4.10;99.90;;;;;;5037640;28;20248;-74
2023/03/09 07:10:57;;;;;;;19.10;16.70;;;4.10;99.90;;;;;;5033067;28;20233;-75
2023/03/09 07:13:25;;;;;;;22.75;14.82;;;4.10;99.90;;;;;;5032679;28;20734;-73
2023/03/09 07:15:51;;;;;;;19.63;15.75;;;4.10;99.90;;;;;;5032791;28;20426;-76
2023/03/09 07:18:18;;;;;;;18.60;15.18;;;4.10;99.90;;;;;;5032411;28;20409;-75
2023/03/09 07:20:47;;;;;;;21.15;14.48;;;4.10;99.90;;;;;;5032775;28;20233;-73
2023/03/09 07:23:15;;;;;;;16.67;14.07;;;4.10;99.90;;;;;;5033812;28;20241;-74
2023/03/09 07:25:42;;;;;;;18.85;14.57;;;4.10;99.90;;;;;;5031454;28;20225;-73
2023/03/09 07:28:10;;;;;;;15.73;14.07;;;4.10;99.90;;;;;;5027616;28;20237;-74
2023/03/09 07:30:38;;;;;;;16.63;13.50;;;4.00;99.90;;;;;;5030504;28;20557;-75
2023/03/09 07:33:05;;;;;;;18.25;13.82;;;4.10;99.90;;;;;;5033088;28;20229;-73
2023/03/09 07:35:33;;;;;;;17.27;15.40;;;4.10;99.90;;;;;;5033141;28;20233;-73
2023/03/09 07:38:01;;;;;;;20.55;13.88;;;4.10;99.90;;;;;;5021596;28;20679;-74
2023/03/09 07:40:28;;;;;;;17.75;13.80;;;4.10;99.90;;;;;;5033480;28;20225;-74
2023/03/09 07:42:55;;;;;;;17.10;13.18;;;4.10;99.90;;;;;;5053312;28;20228;-73
2023/03/09 07:45:23;;;;;;;17.33;13.60;;;4.00;99.90;;;;;;5047401;28;20290;-76
2023/03/09 07:47:51;;;;;;;14.93;12.40;;;4.00;99.90;;;;;;5052585;28;20740;-76
2023/03/09 07:50:19;;;;;;;17.02;14.20;;;4.10;99.90;;;;;;5052994;28;20225;-76
2023/03/09 07:52:46;;;;;;;18.27;14.40;;;4.10;99.90;;;;;;5052334;28;20238;-74
2023/03/09 07:55:15;;;;;;;15.15;13.00;;;4.10;99.90;;;;;;5052551;28;20239;-74
2023/03/09 07:57:43;;;;;;;15.55;12.27;;;4.10;99.90;;;;;;5053123;28;20241;-76
2023/03/09 08:00:20;;;;;;;15.43;11.85;;;4.20;99.90;;;;;;5045961;28;20225;-76
2023/03/09 08:02:51;;;;;;;17.25;13.65;;;4.20;99.90;;;;;;5031827;28;20240;-74
2023/03/09 08:05:18;;;;;;;16.55;12.65;;;4.20;99.90;;;;;;5032559;28;20327;-74
2023/03/09 08:07:46;;;;;;;16.60;13.93;;;4.20;99.90;;;;;;5031912;28;20221;-75
2023/03/09 08:10:16;;;;;;;17.63;12.45;;;4.20;99.90;;;;;;5032906;28;20221;-75
2023/03/09 08:12:49;;;;;;;18.08;13.68;;;4.20;99.90;;;;;;5032252;28;20222;-74
2023/03/09 08:15:18;;;;;;;14.00;12.60;;;4.30;99.90;;;;;;5037151;28;20216;-76
2023/03/09 08:17:45;;;;;;;14.95;13.00;;;4.30;99.90;;;;;;5031786;28;20221;-74
2023/03/09 08:20:13;;;;;;;14.30;12.82;;;4.30;99.90;;;;;;5026946;28;20221;-74
2023/03/09 08:22:40;;;;;;;15.00;12.07;;;4.40;99.90;;;;;;5040262;28;20233;-76
2023/03/09 08:25:08;;;;;;;21.73;13.07;;;4.40;99.90;;;;;;5031132;28;20221;-76
2023/03/09 08:27:48;;;;;;;15.45;13.18;;;4.40;99.90;;;;;;5031038;28;20221;-74
2023/03/09 08:30:18;;;;;;;16.58;13.80;;;4.40;99.90;;;;;;5031573;28;20260;-75
2023/03/09 08:32:47;;;;;;;14.65;12.93;;;4.50;99.90;;;;;;5030919;28;20572;-76
2023/03/09 08:35:15;;;;;;;16.77;14.48;;;4.50;99.90;;;;;;5032094;28;20300;-77
2023/03/09 08:37:45;;;;;;;16.23;13.95;;;4.50;99.90;;;;;;5032009;28;20687;-75
2023/03/09 08:40:38;;;;;;;16.63;14.82;;;4.40;99.90;;;;;;5032646;28;20225;-77
2023/03/09 08:43:07;;;;;;;19.65;14.30;;;4.40;99.90;;;;;;5021662;28;20256;-76
2023/03/09 08:45:34;;;;;;;19.45;14.15;;;4.40;99.90;;;;;;5032611;28;20218;-76
2023/03/09 08:48:01;;;;;;;20.35;14.02;;;4.40;99.90;;;;;;5031145;28;20283;-74
2023/03/09 08:50:29;;;;;;;15.73;13.93;;;4.40;99.90;;;;;;5032559;28;20225;-76
2023/03/09 08:52:56;;;;;;;18.95;15.52;;;4.50;99.90;;;;;;5031947;28;20565;-76
2023/03/09 08:55:23;;;;;;;20.83;15.63;;;4.40;99.90;;;;;;5035587;28;20263;-75
2023/03/09 08:57:51;;;;;;;19.02;15.32;;;4.40;99.90;;;;;;5034419;28;20229;-76
2023/03/09 09:00:20;;;;;;;16.80;15.00;;;4.40;99.90;;;;;;5032338;28;20221;-76
2023/03/09 09:02:48;;;;;;;17.73;15.68;;;4.30;99.90;;;;;;5030806;28;20588;-74
2023/03/09 09:05:15;;;;;;;19.08;15.68;;;4.30;99.90;;;;;;5032006;28;20225;-77
2023/03/09 09:07:42;;;;;;;21.63;17.52;;;4.30;99.90;;;;;;5033861;28;20251;-75
2023/03/09 09:10:14;;;;;;;23.75;17.60;;;4.30;99.90;;;;;;5035281;28;20586;-74
2023/03/09 09:12:41;;;;;;;17.77;15.65;;;4.40;99.90;;;;;;5035694;28;20547;-76
2023/03/09 09:15:09;;;;;;;19.20;16.70;;;4.30;99.90;;;;;;5035043;28;20686;-76
2023/03/09 09:17:38;;;;;;;19.10;17.02;;;4.40;99.90;;;;;;5035330;28;20225;-77
2023/03/09 09:20:12;;;;;;;21.88;17.30;;;4.30;99.90;;;;;;5035038;28;20225;-74
2023/03/09 09:22:42;;;;;;;21.58;16.92;;;4.40;99.90;;;;;;5035203;28;20219;-75
2023/03/09 09:25:09;;;;;;;20.60;16.33;;;4.30;99.90;;;;;;5034213;28;20229;-74
2023/03/09 09:27:40;;;;;;;25.75;18.83;;;4.30;99.90;;;;;;5035137;28;20229;-76
2023/03/09 09:30:11;;;;;;;22.55;18.10;;;4.30;99.90;;;;;;5034905;28;20237;-76
2023/03/09 09:32:41;;;;;;;20.90;18.17;;;4.30;99.90;;;;;;5026139;28;20225;-76
2023/03/09 09:35:10;;;;;;;20.58;16.80;;;4.30;99.90;;;;;;5035060;28;20314;-76
2023/03/09 09:37:38;;;;;;;20.15;17.92;;;4.30;99.90;;;;;;5034791;28;20538;-77
2023/03/09 09:40:12;;;;;;;25.08;18.20;;;4.30;99.90;;;;;;5033928;28;20280;-77
2023/03/09 09:42:42;;;;;;;21.88;18.40;;;4.30;99.90;;;;;;5033631;28;20236;-76
2023/03/09 09:45:29;;;;;;;20.25;18.00;;;4.20;99.90;;;;;;5034488;28;20229;-76
2023/03/09 09:48:04;;;;;;;25.33;17.35;;;4.30;99.90;;;;;;5035789;28;20264;-76
2023/03/09 09:50:56;;;;;;;24.60;19.60;;;4.20;99.90;;;;;;5034819;28;20227;-75
2023/03/09 09:53:32;;;;;;;21.85;17.63;;;4.30;99.90;;;;;;5034539;28;20229;-76
2023/03/09 09:56:02;;;;;;;19.30;16.95;;;4.20;99.90;;;;;;5034538;28;20221;-75
2023/03/09 09:58:36;;;;;;;21.80;17.60;;;4.20;99.90;;;;;;5034217;28;20225;-75
2023/03/09 10:01:14;;;;;;;20.98;17.58;;;4.10;99.90;;;;;;5034316;28;20690;-75
2023/03/09 10:03:46;;;;;;;18.23;16.02;;;4.10;99.90;;;;;;5033932;28;20647;-76
2023/03/09 10:06:18;;;;;;;19.25;17.27;;;4.20;99.90;;;;;;5035017;28;20303;-76
2023/03/09 10:08:50;;;;;;;20.17;16.40;;;4.20;99.90;;;;;;5036516;28;20242;-74
2023/03/09 10:11:25;;;;;;;17.95;15.80;;;4.20;99.90;;;;;;5039393;28;20237;-75
2023/03/09 10:13:58;;;;;;;21.73;18.30;;;4.20;99.90;;;;;;5045549;28;20223;-74
2023/03/09 10:16:32;;;;;;;22.50;18.05;;;4.20;99.90;;;;;;5035739;28;20221;-75
2023/03/09 10:19:03;;;;;;;25.25;18.90;;;4.20;99.90;;;;;;5046197;28;20232;-76
2023/03/09 10:21:36;;;;;;;20.15;17.50;;;4.20;99.90;;;;;;5038291;28;20677;-74
2023/03/09 10:24:18;;;;;;;22.10;18.88;;;4.20;99.90;;;;;;5048164;28;20814;-76
2023/03/09 10:26:51;;;;;;;19.70;16.05;;;4.20;99.90;;;;;;5035937;28;20563;-74
2023/03/09 10:29:25;;;;;;;23.35;18.50;;;4.30;99.90;;;;;;5036256;28;20276;-76
2023/03/09 10:31:58;;;;;;;24.20;19.70;;;4.30;99.90;;;;;;5036374;28;20282;-76
2023/03/09 10:34:34;;;;;;;22.42;18.70;;;4.30;99.90;;;;;;5050118;28;20248;-75
2023/03/09 10:37:04;;;;;;;20.85;16.95;;;4.40;99.90;;;;;;5044735;28;20225;-74
2023/03/09 10:39:40;;;;;;;18.30;15.95;;;4.40;99.90;;;;;;5038403;28;20240;-74
2023/03/09 10:42:19;;;;;;;24.02;19.08;;;4.50;99.90;;;;;;5057326;28;20553;-74
2023/03/09 10:44:55;;;;;;;18.92;16.88;;;4.50;99.90;;;;;;5057200;28;20262;-74
2023/03/09 10:47:22;;;;;;;19.63;17.63;;;4.50;99.90;;;;;;5055466;28;20220;-74
2023/03/09 10:50:10;;;;;;;19.48;17.25;;;4.60;99.90;;;;;;5054393;28;20235;-73
2023/03/09 10:52:37;;;;;;;22.60;17.92;;;4.50;99.90;;;;;;5055854;28;20278;-74
2023/03/09 10:55:28;;;;;;;19.60;16.00;;;4.50;99.90;;;;;;5046096;28;20224;-76
2023/03/09 10:57:56;;;;;;;20.90;17.02;;;4.40;99.90;;;;;;5055837;28;20229;-76
2023/03/09 11:00:25;;;;;;;25.60;18.77;;;4.40;99.90;;;;;;5054988;28;20666;-75
2023/03/09 11:02:55;;;;;;;21.27;17.55;;;4.40;99.90;;;;;;5054614;28;20234;-75
2023/03/09 11:05:26;;;;;;;22.17;17.85;;;4.40;99.90;;;;;;5054654;28;20294;-76
2023/03/09 11:07:55;;;;;;;21.20;18.38;;;4.40;99.90;;;;;;5053728;28;20233;-77
2023/03/09 11:10:28;;;;;;;21.33;17.55;;;4.50;99.90;;;;;;5053826;28;20224;-75
2023/03/09 11:12:55;;;;;;;22.60;17.90;;;4.50;99.90;;;;;;5053352;28;20225;-74
2023/03/09 11:15:29;;;;;;;23.83;18.55;;;4.60;99.90;;;;;;5053914;28;20220;-74
2023/03/09 11:17:56;;;;;;;22.63;19.08;;;4.60;99.90;;;;;;5053407;28;20224;-76
2023/03/09 11:20:33;;;;;;;20.52;18.33;;;4.60;99.90;;;;;;5053357;28;20231;-77
2023/03/09 11:23:12;;;;;;;24.85;20.42;;;4.60;99.90;;;;;;5053512;28;20228;-76
2023/03/09 11:26:09;;;;;;;23.35;18.23;;;4.60;99.90;;;;;;5053661;28;20240;-75
2023/03/09 11:28:46;;;;;;;20.67;18.35;;;4.70;99.90;;;;;;5044049;28;20225;-76
2023/03/09 11:31:16;;;;;;;22.75;19.67;;;4.70;99.90;;;;;;5032864;28;20217;-75
2023/03/09 11:33:45;;;;;;;20.27;17.88;;;4.70;99.90;;;;;;5032977;28;20218;-75
2023/03/09 11:36:17;;;;;;;21.42;17.83;;;4.70;99.90;;;;;;5034709;28;20686;-74
2023/03/09 11:38:47;;;;;;;23.27;18.83;;;4.70;99.90;;;;;;5033747;28;20229;-76
2023/03/09 11:41:19;;;;;;;22.85;19.08;;;4.80;99.90;;;;;;5033998;28;20248;-74
2023/03/09 11:43:52;;;;;;;23.80;20.73;;;4.80;99.90;;;;;;5032894;28;20598;-75
2023/03/09 11:46:20;;;;;;;26.05;20.33;;;4.80;99.90;;;;;;5034376;28;20308;-77
2023/03/09 11:48:51;;;;;;;22.30;19.00;;;4.80;99.90;;;;;;5033906;28;20577;-76
2023/03/09 11:51:26;;;;;;;27.40;21.10;;;4.80;99.90;;;;;;5034121;28;20287;-74
2023/03/09 11:54:03;;;;;;;23.20;19.95;;;4.80;99.90;;;;;;5032142;28;20327;-77
2023/03/09 11:56:34;;;;;;;28.15;20.08;;;4.90;99.90;;;;;;5031493;28;20296;-76
2023/03/09 11:59:09;;;;;;;24.48;20.63;;;4.80;99.90;;;;;;5033077;28;20222;-76
2023/03/09 12:01:45;;;;;;;24.42;21.75;;;4.80;99.90;;;;;;5033128;28;20228;-76
2023/03/09 12:04:15;;;;;;;22.20;19.60;;;4.80;99.90;;;;;;5033976;28;20221;-74
2023/03/09 12:06:51;;;;;;;25.80;19.80;;;4.80;99.90;;;;;;5032951;28;20259;-74
2023/03/09 12:09:31;;;;;;;24.73;20.50;;;4.80;99.90;;;;;;5029145;28;20324;-76
2023/03/09 12:12:02;;;;;;;23.38;20.90;;;4.90;99.90;;;;;;5033084;28;20687;-76
2023/03/09 12:14:34;;;;;;;26.42;20.90;;;4.80;99.90;;;;;;5032852;28;20287;-74
2023/03/09 12:17:10;;;;;;;23.95;20.48;;;4.80;99.90;;;;;;5033558;28;20225;-74
2023/03/09 12:19:37;;;;;;;28.45;21.13;;;4.80;99.90;;;;;;5032349;28;20221;-76
2023/03/09 12:22:08;;;;;;;32.40;22.50;;;4.90;99.90;;;;;;5032941;28;20630;-74
2023/03/09 12:24:39;;;;;;;25.65;21.48;;;4.90;99.90;;;;;;5032825;28;20248;-76
2023/03/09 12:27:17;;;;;;;26.95;22.35;;;4.90;99.90;;;;;;5033536;28;20574;-76
2023/03/09 12:29:47;;;;;;;27.80;20.95;;;5.00;99.90;;;;;;5032947;28;20300;-74
2023/03/09 12:32:33;;;;;;;25.10;21.08;;;5.00;99.90;;;;;;5033443;28;20619;-76
2023/03/09 12:35:03;;;;;;;29.13;22.63;;;5.10;99.90;;;;;;5033556;28;20244;-74
2023/03/09 12:38:17;;;;;;;26.50;22.50;;;5.10;99.90;;;;;;5052205;28;20290;-74
2023/03/09 12:40:45;;;;;;;25.42;21.30;;;5.10;99.90;;;;;;5040818;28;20220;-75
2023/03/09 12:43:46;;;;;;;29.13;20.70;;;5.10;99.90;;;;;;5056066;28;20261;-76
2023/03/09 12:46:53;;;;;;;21.88;19.50;;;5.10;99.90;;;;;;5045901;28;20229;-76
2023/03/09 12:49:24;;;;;;;23.40;20.40;;;5.10;99.90;;;;;;5050137;28;20308;-76